createdAt,value
2022-08-23T00:02:02.199Z,20.70
2022-08-23T00:04:34.665Z,20.70
2022-08-23T00:07:02.691Z,20.60
2022-08-23T00:09:29.560Z,20.50
2022-08-23T00:12:05.482Z,20.50
2022-08-23T00:14:33.270Z,20.40
2022-08-23T00:17:03.185Z,20.40
2022-08-23T00:24:25.965Z,20.20
2022-08-23T00:26:59.307Z,20.20
2022-08-23T00:29:33.702Z,20.20
2022-08-23T00:32:00.931Z,20.10
2022-08-23T00:34:28.404Z,20.00
2022-08-23T00:36:55.290Z,19.90
2022-08-23T00:39:23.161Z,19.90
2022-08-23T00:41:50.366Z,19.80
2022-08-23T00:44:42.500Z,19.80
2022-08-23T00:47:29.216Z,19.80
2022-08-23T00:50:01.589Z,19.80
2022-08-23T00:52:34.196Z,19.80
2022-08-23T00:55:01.731Z,19.70
2022-08-23T00:57:29.071Z,19.60
2022-08-23T00:59:55.861Z,19.60
2022-08-23T01:02:22.998Z,19.50
2022-08-23T01:04:53.898Z,19.50
2022-08-23T01:07:26.663Z,19.40
2022-08-23T01:09:55.096Z,19.30
2022-08-23T01:12:33.093Z,19.30
2022-08-23T01:15:02.917Z,19.20
2022-08-23T01:17:40.136Z,19.20
2022-08-23T01:20:08.944Z,19.20
2022-08-23T01:22:45.664Z,19.10
2022-08-23T01:25:14.022Z,19.10
2022-08-23T01:27:43.786Z,19.10
2022-08-23T01:30:14.971Z,19.00
2022-08-23T01:32:50.699Z,19.00
2022-08-23T01:35:18.699Z,19.00
2022-08-23T01:37:45.527Z,18.90
2022-08-23T01:40:12.695Z,18.90
2022-08-23T01:42:41.726Z,18.80
2022-08-23T01:45:11.693Z,18.70
2022-08-23T01:47:38.806Z,18.60
2022-08-23T02:17:18.644Z,18.20
2022-08-23T02:19:45.767Z,18.10
2022-08-23T02:22:12.655Z,18.00
2022-08-23T02:24:41.675Z,18.00
2022-08-23T02:27:08.601Z,18.00
2022-08-23T02:29:39.635Z,17.90
2022-08-23T02:32:09.913Z,17.90
2022-08-23T02:37:18.662Z,17.80
2022-08-23T02:39:45.622Z,17.90
2022-08-23T02:42:12.502Z,17.80
2022-08-23T02:44:42.376Z,17.80
2022-08-23T02:47:09.513Z,17.80
2022-08-23T02:49:38.963Z,17.80
2022-08-23T02:52:06.784Z,17.80
2022-08-23T02:54:34.749Z,17.80
2022-08-23T02:57:01.765Z,17.70
2022-08-23T02:59:28.670Z,17.70
2022-08-23T03:01:55.805Z,17.60
2022-08-23T03:04:27.726Z,17.70
2022-08-23T03:06:55.110Z,17.60
2022-08-23T03:09:21.932Z,17.50
2022-08-23T03:11:50.005Z,17.50
2022-08-23T03:14:18.470Z,17.50
2022-08-23T03:16:45.627Z,17.50
2022-08-23T03:19:13.133Z,17.40
2022-08-23T03:21:40.262Z,17.50
2022-08-23T03:24:11.382Z,17.40
2022-08-23T03:26:41.627Z,17.40
2022-08-23T03:29:09.198Z,17.40
2022-08-23T03:31:51.606Z,17.40
2022-08-23T03:34:20.845Z,17.30
2022-08-23T03:36:47.689Z,17.30
2022-08-23T03:39:14.465Z,17.20
2022-08-23T03:41:41.229Z,17.20
2022-08-23T03:44:08.325Z,17.20
2022-08-23T03:46:39.185Z,17.10
2022-08-23T03:49:06.842Z,17.10
2022-08-23T03:51:43.329Z,17.10
2022-08-23T03:54:10.253Z,17.10
2022-08-23T03:56:38.705Z,17.10
2022-08-23T03:59:07.434Z,17.10
2022-08-23T04:01:34.246Z,17.10
2022-08-23T04:04:01.029Z,17.10
2022-08-23T04:06:32.039Z,17.10
2022-08-23T04:08:59.556Z,17.10
2022-08-23T04:11:27.583Z,17.10
2022-08-23T04:14:02.445Z,17.10
2022-08-23T04:16:30.348Z,17.10
2022-08-23T04:18:57.395Z,17.10
2022-08-23T04:21:27.553Z,17.10
2022-08-23T04:23:54.497Z,17.10
2022-08-23T04:26:25.095Z,17.10
2022-08-23T04:28:54.973Z,17.00
2022-08-23T04:31:22.430Z,17.00
2022-08-23T04:33:52.234Z,17.00
2022-08-23T04:36:19.702Z,17.00
2022-08-23T04:38:46.778Z,17.00
2022-08-23T04:41:32.962Z,17.00
2022-08-23T04:44:00.170Z,16.90
2022-08-23T04:46:28.599Z,16.90
2022-08-23T04:48:59.698Z,16.90
2022-08-23T04:51:27.629Z,17.00
2022-08-23T04:53:55.491Z,17.00
2022-08-23T04:56:38.910Z,17.00
2022-08-23T04:59:07.503Z,17.00
2022-08-23T05:01:35.518Z,17.00
2022-08-23T05:04:03.370Z,17.00
2022-08-23T05:06:31.438Z,17.10
2022-08-23T05:08:58.554Z,17.10
2022-08-23T05:11:25.549Z,17.10
2022-08-23T05:13:52.971Z,17.10
2022-08-23T05:16:20.550Z,17.10
2022-08-23T05:18:57.333Z,17.20
2022-08-23T05:21:25.141Z,17.30
2022-08-23T05:23:54.995Z,17.50
2022-08-23T05:26:24.280Z,17.80
2022-08-23T05:28:51.136Z,18.20
2022-08-23T05:31:22.849Z,18.50
2022-08-23T05:33:52.402Z,18.60
2022-08-23T05:36:27.609Z,18.90
2022-08-23T05:38:54.795Z,19.20
2022-08-23T05:41:21.755Z,19.40
2022-08-23T05:43:54.984Z,19.40
2022-08-23T05:46:22.734Z,19.50
2022-08-23T05:49:16.840Z,19.80
2022-08-23T05:51:51.617Z,19.90
2022-08-23T05:54:18.929Z,20.10
2022-08-23T05:56:52.586Z,20.20
2022-08-23T05:59:20.397Z,20.40
2022-08-23T06:01:47.276Z,20.60
2022-08-23T06:04:19.271Z,20.90
2022-08-23T06:06:46.504Z,21.20
2022-08-23T06:09:14.867Z,21.50
2022-08-23T06:11:43.573Z,21.60
2022-08-23T06:14:10.716Z,21.70
2022-08-23T06:16:40.616Z,21.90
2022-08-23T06:19:09.061Z,21.80
2022-08-23T06:21:54.678Z,22.00
2022-08-23T06:24:26.925Z,22.20
2022-08-23T06:27:00.535Z,22.50
2022-08-23T06:29:27.815Z,22.80
2022-08-23T06:32:14.951Z,22.90
2022-08-23T06:35:32.853Z,22.70
2022-08-23T06:37:57.762Z,22.50
2022-08-23T06:40:47.946Z,22.50
2022-08-23T06:43:29.405Z,22.80
2022-08-23T06:46:23.623Z,23.30
2022-08-23T06:48:51.194Z,23.70
2022-08-23T06:51:23.864Z,24.10
2022-08-23T06:53:57.426Z,24.20
2022-08-23T06:56:51.659Z,24.50
2022-08-23T06:59:23.229Z,24.60
2022-08-23T07:02:14.837Z,24.60
2022-08-23T07:04:55.682Z,24.20
2022-08-23T07:07:37.684Z,23.70
2022-08-23T07:10:11.514Z,23.30
2022-08-23T07:12:40.848Z,23.10
2022-08-23T07:15:08.467Z,23.40
2022-08-23T07:17:35.566Z,23.70
2022-08-23T07:20:03.071Z,24.20
2022-08-23T07:22:30.923Z,24.90
2022-08-23T07:24:58.405Z,25.30
2022-08-23T07:27:25.334Z,25.50
2022-08-23T07:30:01.529Z,25.90
2022-08-23T07:32:29.865Z,25.70
2022-08-23T07:34:59.066Z,25.40
2022-08-23T07:37:28.203Z,25.20
2022-08-23T07:39:58.636Z,25.20
2022-08-23T07:42:26.236Z,25.40
2022-08-23T07:44:55.480Z,25.70
2022-08-23T07:47:25.729Z,26.00
2022-08-23T07:49:56.593Z,26.20
2022-08-23T07:52:23.632Z,26.60
2022-08-23T07:54:50.658Z,27.00
2022-08-23T07:57:29.323Z,27.20
2022-08-23T08:00:12.041Z,27.00
2022-08-23T08:02:50.711Z,27.00
2022-08-23T08:05:22.598Z,27.00
2022-08-23T08:07:51.073Z,27.00
2022-08-23T08:10:18.029Z,27.20
2022-08-23T08:12:45.526Z,27.50
2022-08-23T08:15:17.933Z,27.90
2022-08-23T08:17:48.765Z,28.10
2022-08-23T08:20:15.902Z,28.30
2022-08-23T08:23:04.013Z,28.30
2022-08-23T08:25:49.466Z,28.50
2022-08-23T08:28:19.743Z,28.80
2022-08-23T08:30:46.616Z,29.10
2022-08-23T08:33:14.957Z,29.40
2022-08-23T08:35:42.200Z,29.80
2022-08-23T08:38:09.594Z,30.00
2022-08-23T08:40:40.213Z,30.40
2022-08-23T08:43:27.963Z,30.40
2022-08-23T08:46:07.745Z,30.30
2022-08-23T08:48:43.068Z,30.50
2022-08-23T08:51:28.729Z,30.50
2022-08-23T08:53:56.797Z,30.80
2022-08-23T08:56:37.103Z,31.10
2022-08-23T08:59:15.787Z,31.50
2022-08-23T09:01:42.734Z,31.60
2022-08-23T09:04:13.731Z,31.40
2022-08-23T09:07:02.400Z,31.30
2022-08-23T09:09:54.602Z,31.40
2022-08-23T09:12:22.906Z,31.60
2022-08-23T09:15:06.100Z,31.20
2022-08-23T09:17:48.497Z,31.20
2022-08-23T09:20:17.019Z,30.80
2022-08-23T09:22:48.297Z,30.50
2022-08-23T09:25:24.828Z,30.50
2022-08-23T09:28:16.442Z,30.60
2022-08-23T09:30:48.251Z,31.00
2022-08-23T09:33:19.773Z,31.10
2022-08-23T09:36:04.681Z,31.20
2022-08-23T09:38:32.164Z,31.40
2022-08-23T09:41:17.959Z,31.70
2022-08-23T09:43:48.417Z,31.90
2022-08-23T09:46:25.550Z,32.00
2022-08-23T09:48:58.894Z,32.20
2022-08-23T09:51:36.037Z,32.00
2022-08-23T09:54:18.298Z,32.00
2022-08-23T09:56:51.648Z,32.10
2022-08-23T09:59:28.174Z,32.20
2022-08-23T10:02:05.969Z,32.30
2022-08-23T10:04:46.106Z,32.40
2022-08-23T10:07:38.707Z,32.50
2022-08-23T10:10:29.166Z,32.70
2022-08-23T10:13:01.059Z,33.00
2022-08-23T10:15:40.222Z,33.00
2022-08-23T10:18:11.119Z,33.00
2022-08-23T10:20:59.089Z,33.20
2022-08-23T10:23:59.059Z,33.00
2022-08-23T10:26:36.078Z,32.60
2022-08-23T10:29:39.178Z,32.40
2022-08-23T10:32:15.635Z,32.10
2022-08-23T10:35:06.718Z,32.00
2022-08-23T10:37:51.288Z,32.00
2022-08-23T10:40:22.067Z,32.00
2022-08-23T10:42:55.718Z,32.10
2022-08-23T10:45:31.820Z,32.00
2022-08-23T10:48:06.915Z,31.90
2022-08-23T10:50:55.486Z,31.80
2022-08-23T10:53:26.814Z,31.70
2022-08-23T10:56:03.409Z,31.50
2022-08-23T10:58:39.154Z,31.40
2022-08-23T11:01:06.422Z,31.40
2022-08-23T11:03:40.908Z,31.40
2022-08-23T11:06:27.481Z,31.30
2022-08-23T11:09:00.342Z,31.10
2022-08-23T11:11:41.579Z,30.90
2022-08-23T11:14:10.907Z,30.80
2022-08-23T11:16:42.204Z,30.70
2022-08-23T11:19:13.879Z,30.70
2022-08-23T11:21:45.364Z,30.70
2022-08-23T11:24:14.114Z,30.80
2022-08-23T11:26:44.823Z,31.00
2022-08-23T11:29:21.362Z,31.10
2022-08-23T11:32:02.231Z,31.20
2022-08-23T11:34:43.258Z,31.00
2022-08-23T11:37:20.038Z,30.90
2022-08-23T11:40:04.390Z,30.70
2022-08-23T11:42:37.208Z,30.70
2022-08-23T11:45:22.713Z,30.70
2022-08-23T11:47:53.752Z,30.80
2022-08-23T11:50:26.318Z,30.90
2022-08-23T11:53:01.422Z,31.00
2022-08-23T11:55:46.955Z,31.20
2022-08-23T11:58:14.037Z,31.40
2022-08-23T12:01:02.792Z,31.60
2022-08-23T12:03:37.266Z,31.90
2022-08-23T12:06:12.797Z,32.10
2022-08-23T12:08:48.968Z,32.00
2022-08-23T12:11:17.096Z,31.70
2022-08-23T12:13:49.871Z,31.60
2022-08-23T12:16:17.781Z,31.50
2022-08-23T12:18:44.594Z,31.50
2022-08-23T12:21:17.660Z,31.40
2022-08-23T12:23:47.945Z,31.30
2022-08-23T12:26:26.136Z,30.90
2022-08-23T12:29:05.775Z,30.50
2022-08-23T12:32:06.075Z,30.00
2022-08-23T12:34:56.772Z,29.70
2022-08-23T12:37:41.079Z,29.70
2022-08-23T12:40:14.913Z,29.70
2022-08-23T12:42:42.183Z,29.80
2022-08-23T12:45:18.107Z,30.00
2022-08-23T12:47:59.915Z,30.30
2022-08-23T12:50:36.945Z,30.40
2022-08-23T12:53:03.654Z,30.60
2022-08-23T12:55:32.629Z,30.80
2022-08-23T12:57:59.694Z,30.90
2022-08-23T13:00:35.065Z,30.80
2022-08-23T13:03:03.908Z,30.70
2022-08-23T13:05:30.801Z,30.60
2022-08-23T13:07:58.018Z,30.70
2022-08-23T13:10:25.061Z,30.70
2022-08-23T13:12:52.052Z,30.80
2022-08-23T13:15:38.855Z,30.70
2022-08-23T13:18:05.783Z,30.50
2022-08-23T13:20:32.613Z,30.40
2022-08-23T13:23:01.305Z,30.40
2022-08-23T13:25:35.019Z,30.30
2022-08-23T13:28:06.659Z,30.10
2022-08-23T13:30:37.280Z,30.00
2022-08-23T13:33:04.144Z,29.90
2022-08-23T13:35:38.528Z,29.70
2022-08-23T13:38:08.099Z,29.60
2022-08-23T13:40:59.260Z,29.50
2022-08-23T13:43:35.941Z,29.40
2022-08-23T13:46:26.619Z,29.30
2022-08-23T13:49:28.527Z,29.30
2022-08-23T13:54:52.662Z,29.20
2022-08-23T13:57:21.487Z,29.10
2022-08-23T13:59:52.266Z,28.90
2022-08-23T14:02:21.837Z,28.80
2022-08-23T14:04:48.851Z,28.80
2022-08-23T14:07:15.841Z,29.00
2022-08-23T14:09:43.042Z,29.20
2022-08-23T14:12:17.297Z,29.30
2022-08-23T14:14:45.603Z,29.50
2022-08-23T14:17:16.940Z,29.60
2022-08-23T14:22:34.672Z,29.70
2022-08-23T14:25:01.656Z,29.70
2022-08-23T14:27:28.557Z,29.70
2022-08-23T14:29:55.447Z,29.70
2022-08-23T14:32:22.299Z,29.70
2022-08-23T14:34:49.500Z,29.50
2022-08-23T14:40:04.897Z,29.80
2022-08-23T14:42:31.855Z,30.00
2022-08-23T14:44:58.888Z,30.00
2022-08-23T14:47:26.812Z,30.00
2022-08-23T14:49:54.217Z,30.00
2022-08-23T14:52:21.553Z,30.00
2022-08-23T14:54:49.605Z,30.00
2022-08-23T14:57:17.067Z,30.10
2022-08-23T14:59:44.015Z,30.10
2022-08-23T15:02:12.928Z,30.00
2022-08-23T15:04:40.374Z,30.00
2022-08-23T15:07:22.480Z,29.90
2022-08-23T15:09:54.494Z,29.90
2022-08-23T15:15:16.924Z,30.00
2022-08-23T15:17:54.889Z,30.00
2022-08-23T15:20:25.695Z,29.80
2022-08-23T15:22:55.801Z,29.60
2022-08-23T15:25:24.146Z,29.60
2022-08-23T15:27:51.202Z,29.50
2022-08-23T15:30:18.086Z,29.50
2022-08-23T15:32:52.665Z,29.50
2022-08-23T15:35:24.729Z,29.50
2022-08-23T15:37:52.452Z,29.50
2022-08-23T15:40:19.259Z,29.40
2022-08-23T15:42:46.271Z,29.40
2022-08-23T15:45:13.005Z,29.40
2022-08-23T15:47:42.862Z,29.40
2022-08-23T15:50:10.106Z,29.20
2022-08-23T15:52:36.919Z,29.20
2022-08-23T15:55:04.267Z,29.20
2022-08-23T15:57:32.099Z,29.10
2022-08-23T15:59:59.257Z,29.00
2022-08-23T16:02:26.157Z,29.00
2022-08-23T16:04:53.000Z,28.90
2022-08-23T16:07:21.587Z,28.80
2022-08-23T16:09:48.895Z,28.80
2022-08-23T16:12:15.758Z,28.90
2022-08-23T16:14:42.598Z,28.80
2022-08-23T16:17:09.869Z,28.70
2022-08-23T16:19:36.729Z,28.50
2022-08-23T16:22:03.927Z,28.30
2022-08-23T16:24:30.869Z,28.20
2022-08-23T16:26:57.718Z,28.10
2022-08-23T16:29:24.579Z,28.00
2022-08-23T16:31:52.025Z,28.00
2022-08-23T16:34:19.891Z,28.00
2022-08-23T16:36:48.424Z,28.10
2022-08-23T16:39:16.286Z,28.10
2022-08-23T16:41:43.250Z,28.10
2022-08-23T16:44:10.211Z,28.20
2022-08-23T16:46:37.057Z,28.20
2022-08-23T16:49:03.880Z,28.10
2022-08-23T16:51:30.701Z,28.00
2022-08-23T16:54:03.278Z,28.00
2022-08-23T16:56:30.833Z,27.80
2022-08-23T16:58:57.767Z,27.70
2022-08-23T17:01:24.555Z,27.60
2022-08-23T17:03:51.500Z,27.60
2022-08-23T17:06:18.282Z,27.60
2022-08-23T17:08:45.297Z,27.50
2022-08-23T17:11:17.659Z,27.50
2022-08-23T17:13:44.757Z,27.50
2022-08-23T17:16:11.729Z,27.40
2022-08-23T17:18:38.713Z,27.40
2022-08-23T17:21:06.710Z,27.50
2022-08-23T17:23:33.513Z,27.50
2022-08-23T17:26:06.092Z,27.50
2022-08-23T17:28:32.878Z,27.40
2022-08-23T17:30:59.689Z,27.40
2022-08-23T17:33:26.418Z,27.40
2022-08-23T17:35:53.200Z,27.30
2022-08-23T17:38:20.945Z,27.30
2022-08-23T17:40:47.824Z,27.20
2022-08-23T17:43:14.572Z,27.20
2022-08-23T17:45:43.941Z,27.20
2022-08-23T17:48:11.381Z,27.10
2022-08-23T17:50:38.272Z,27.00
2022-08-23T17:53:05.907Z,27.00
2022-08-23T17:55:33.703Z,27.00
2022-08-23T17:58:04.067Z,27.00
2022-08-23T18:00:32.492Z,26.90
2022-08-23T18:02:59.272Z,26.90
2022-08-23T18:05:26.778Z,26.90
2022-08-23T18:07:53.595Z,26.90
2022-08-23T18:10:20.474Z,26.90
2022-08-23T18:12:47.247Z,26.90
2022-08-23T18:15:14.004Z,26.90
2022-08-23T18:17:40.804Z,26.80
2022-08-23T18:20:09.500Z,26.80
2022-08-23T18:22:37.648Z,26.80
2022-08-23T18:25:06.099Z,26.70
2022-08-23T18:27:51.836Z,26.70
2022-08-23T18:30:20.555Z,26.70
2022-08-23T18:32:47.837Z,26.60
2022-08-23T18:35:15.237Z,26.60
2022-08-23T18:37:42.471Z,26.50
2022-08-23T18:40:10.432Z,26.50
2022-08-23T18:42:38.195Z,26.40
2022-08-23T18:45:05.959Z,26.30
2022-08-23T18:47:34.897Z,26.20
2022-08-23T18:50:02.582Z,26.10
2022-08-23T18:52:31.115Z,26.10
2022-08-23T18:54:58.750Z,26.00
2022-08-23T18:57:25.970Z,26.00
2022-08-23T18:59:53.288Z,26.00
2022-08-23T19:02:20.754Z,25.90
2022-08-23T19:04:48.072Z,25.80
2022-08-23T19:07:15.279Z,25.70
2022-08-23T19:09:42.595Z,25.70
2022-08-23T19:12:09.790Z,25.60
2022-08-23T19:14:37.397Z,25.50
2022-08-23T19:17:05.594Z,25.50
2022-08-23T19:19:34.493Z,25.40
2022-08-23T19:22:01.826Z,25.40
2022-08-23T19:24:29.922Z,25.30
2022-08-23T19:26:56.914Z,25.20
2022-08-23T19:29:23.751Z,25.10
2022-08-23T19:31:50.997Z,25.10
2022-08-23T19:34:20.668Z,25.00
2022-08-23T19:36:55.808Z,25.00
2022-08-23T19:39:27.001Z,25.00
2022-08-23T19:41:53.700Z,24.90
2022-08-23T19:44:21.367Z,24.80
2022-08-23T19:46:48.367Z,24.80
2022-08-23T19:49:15.181Z,24.70
2022-08-23T19:51:42.563Z,24.70
2022-08-23T19:54:12.066Z,24.70
2022-08-23T19:56:44.725Z,24.60
2022-08-23T19:59:17.957Z,24.50
2022-08-23T20:01:45.306Z,24.50
2022-08-23T20:04:12.866Z,24.50
2022-08-23T20:06:40.040Z,24.40
2022-08-23T20:09:06.922Z,24.30
2022-08-23T20:11:33.914Z,24.30
2022-08-23T20:14:01.172Z,24.20
2022-08-23T20:16:29.061Z,24.20
2022-08-23T20:18:56.358Z,24.20
2022-08-23T20:21:23.540Z,24.10
2022-08-23T20:24:06.159Z,24.00
2022-08-23T20:26:34.584Z,24.00
2022-08-23T20:29:02.257Z,24.00
2022-08-23T20:31:31.946Z,24.00
2022-08-23T20:33:59.558Z,23.90
2022-08-23T20:36:28.233Z,23.90
2022-08-23T20:38:58.342Z,23.90
2022-08-23T20:41:25.885Z,23.90
2022-08-23T20:43:54.642Z,23.80
2022-08-23T20:46:21.400Z,23.80
2022-08-23T20:48:48.231Z,23.70
2022-08-23T20:51:14.999Z,23.70
2022-08-23T20:53:41.765Z,23.70
2022-08-23T20:56:08.615Z,23.60
2022-08-23T20:58:35.814Z,23.50
2022-08-23T21:01:03.832Z,23.50
2022-08-23T21:03:36.450Z,23.50
2022-08-23T21:06:08.519Z,23.50
2022-08-23T21:08:35.605Z,23.40
2022-08-23T21:11:09.915Z,23.40
2022-08-23T21:13:37.239Z,23.40
2022-08-23T21:16:04.091Z,23.40
2022-08-23T21:18:30.853Z,23.40
2022-08-23T21:20:57.570Z,23.30
2022-08-23T21:23:24.851Z,23.30
2022-08-23T21:25:55.515Z,23.20
2022-08-23T21:28:23.030Z,23.20
2022-08-23T21:30:49.925Z,23.20
2022-08-23T21:33:17.125Z,23.20
2022-08-23T21:35:44.426Z,23.00
2022-08-23T21:38:11.143Z,23.10
2022-08-23T21:40:38.385Z,23.00
2022-08-23T21:43:05.179Z,22.90
2022-08-23T21:45:32.246Z,22.90
2022-08-23T21:48:01.423Z,22.80
2022-08-23T21:50:28.627Z,22.80
2022-08-23T21:52:56.639Z,22.70
2022-08-23T21:55:36.299Z,22.60
2022-08-23T21:58:03.946Z,22.60
2022-08-23T22:00:30.866Z,22.50
2022-08-23T22:02:57.735Z,22.50
2022-08-23T22:05:25.926Z,22.50
2022-08-23T22:07:53.010Z,22.50
2022-08-23T22:10:21.044Z,22.40
2022-08-23T22:12:47.701Z,22.40
2022-08-23T22:15:14.462Z,22.40
2022-08-23T22:17:41.175Z,22.40
2022-08-23T22:20:09.382Z,22.30
2022-08-23T22:22:36.116Z,22.30
2022-08-23T22:25:03.835Z,22.30
2022-08-23T22:27:30.566Z,22.20
2022-08-23T22:29:57.329Z,22.20
2022-08-23T22:32:24.118Z,22.10
2022-08-23T22:34:50.821Z,22.00
2022-08-23T22:37:17.722Z,22.00
2022-08-23T22:39:45.880Z,21.90
2022-08-23T22:42:13.796Z,21.80
2022-08-23T22:44:40.833Z,21.80
2022-08-23T22:47:07.639Z,21.80
2022-08-23T22:49:34.425Z,21.70
2022-08-23T22:52:01.506Z,21.70
2022-08-23T22:54:28.281Z,21.70
2022-08-23T22:56:55.166Z,21.60
2022-08-23T22:59:27.432Z,21.50
2022-08-23T23:01:55.553Z,21.50
2022-08-23T23:04:25.127Z,21.40
2022-08-23T23:06:54.013Z,21.40
2022-08-23T23:09:21.048Z,21.40
2022-08-23T23:11:47.827Z,21.30
2022-08-23T23:14:15.778Z,21.20
2022-08-23T23:16:43.239Z,21.20
2022-08-23T23:19:29.029Z,21.10
2022-08-23T23:22:02.667Z,21.10
2022-08-23T23:24:31.062Z,21.10
2022-08-23T23:26:58.449Z,21.20
2022-08-23T23:29:25.684Z,21.20
2022-08-23T23:31:52.481Z,21.20
2022-08-23T23:34:19.415Z,21.20
2022-08-23T23:36:46.194Z,21.10
2022-08-23T23:39:13.298Z,21.10
2022-08-23T23:41:40.046Z,21.10
2022-08-23T23:44:06.980Z,21.10
2022-08-23T23:46:34.820Z,21.10
2022-08-23T23:49:01.565Z,21.00
2022-08-23T23:51:29.305Z,21.00
2022-08-23T23:53:56.871Z,21.00
2022-08-23T23:56:26.302Z,21.00
2022-08-23T23:58:53.650Z,21.00
